createdAt,value
2022-09-23T00:01:08.692Z,2.60
2022-09-23T00:03:37.283Z,2.75
2022-09-23T00:06:08.560Z,2.50
2022-09-23T00:08:35.257Z,2.75
2022-09-23T00:11:10.198Z,2.97
2022-09-23T00:13:37.055Z,2.83
2022-09-23T00:16:08.477Z,2.70
2022-09-23T00:18:35.065Z,2.35
2022-09-23T00:21:11.782Z,2.95
2022-09-23T00:23:38.748Z,2.60
2022-09-23T00:26:05.957Z,3.10
2022-09-23T00:28:33.110Z,2.75
2022-09-23T00:31:07.090Z,2.80
2022-09-23T00:33:33.701Z,2.53
2022-09-23T00:36:01.943Z,2.47
2022-09-23T00:38:28.776Z,2.55
2022-09-23T00:40:55.360Z,2.80
2022-09-23T00:43:37.845Z,2.42
2022-09-23T00:46:04.551Z,2.62
2022-09-23T00:48:31.176Z,2.87
2022-09-23T00:50:57.901Z,2.60
2022-09-23T00:53:24.480Z,2.28
2022-09-23T00:55:53.621Z,2.47
2022-09-23T00:58:23.436Z,2.40
2022-09-23T01:00:50.117Z,2.42
2022-09-23T01:03:16.694Z,2.40
2022-09-23T01:05:43.286Z,2.58
2022-09-23T01:08:12.900Z,2.65
2022-09-23T01:10:50.968Z,2.55
2022-09-23T01:13:56.235Z,2.58
2022-09-23T01:16:31.910Z,2.28
2022-09-23T01:19:21.602Z,2.50
2022-09-23T01:21:57.391Z,2.10
2022-09-23T01:27:36.543Z,2.75
2022-09-23T01:30:05.816Z,2.30
2022-09-23T01:32:42.323Z,2.72
2022-09-23T01:35:35.298Z,2.40
2022-09-23T01:38:16.449Z,2.50
2022-09-23T01:40:50.910Z,2.40
2022-09-23T01:43:33.873Z,2.60
2022-09-23T01:46:00.515Z,2.03
2022-09-23T01:48:35.673Z,2.58
2022-09-23T01:51:08.222Z,2.35
2022-09-23T01:53:48.939Z,3.33
2022-09-23T01:56:22.798Z,2.65
2022-09-23T01:59:13.658Z,2.45
2022-09-23T02:01:53.859Z,2.30
2022-09-23T02:04:28.230Z,2.58
2022-09-23T02:06:56.338Z,3.17
2022-09-23T02:09:25.034Z,3.00
2022-09-23T02:11:52.498Z,2.60
2022-09-23T02:14:44.481Z,2.40
2022-09-23T02:17:13.063Z,2.28
2022-09-23T02:19:47.857Z,2.75
2022-09-23T02:22:22.259Z,2.30
2022-09-23T02:24:49.209Z,2.70
2022-09-23T02:27:45.082Z,3.03
2022-09-23T02:30:14.027Z,2.40
2022-09-23T02:33:04.154Z,2.70
2022-09-23T02:35:48.950Z,2.33
2022-09-23T02:38:27.212Z,3.03
2022-09-23T02:40:56.671Z,2.62
2022-09-23T02:43:33.884Z,2.28
2022-09-23T02:46:03.048Z,2.50
2022-09-23T02:48:34.766Z,3.00
2022-09-23T02:51:03.772Z,2.42
2022-09-23T02:53:33.789Z,2.80
2022-09-23T02:56:01.424Z,2.87
2022-09-23T02:58:27.992Z,2.80
2022-09-23T03:01:16.421Z,2.60
2022-09-23T03:04:19.906Z,2.72
2022-09-23T03:07:02.806Z,2.85
2022-09-23T03:09:32.438Z,2.95
2022-09-23T03:12:38.292Z,2.70
2022-09-23T03:15:26.019Z,2.58
2022-09-23T03:18:01.649Z,2.90
2022-09-23T03:20:38.298Z,2.95
2022-09-23T03:23:07.511Z,2.60
2022-09-23T03:25:36.476Z,3.00
2022-09-23T03:28:03.067Z,2.72
2022-09-23T03:30:29.885Z,2.37
2022-09-23T03:32:56.440Z,2.78
2022-09-23T03:35:24.199Z,2.42
2022-09-23T03:37:56.845Z,2.58
2022-09-23T03:40:30.138Z,2.92
2022-09-23T03:42:57.550Z,2.70
2022-09-23T03:45:27.516Z,2.85
2022-09-23T03:47:54.194Z,2.97
2022-09-23T03:50:21.352Z,2.83
2022-09-23T03:52:50.446Z,2.62
2022-09-23T03:55:17.741Z,2.70
2022-09-23T03:57:45.164Z,2.75
2022-09-23T04:00:12.461Z,2.72
2022-09-23T04:02:39.216Z,2.60
2022-09-23T04:05:06.619Z,2.67
2022-09-23T04:07:33.173Z,2.28
2022-09-23T04:09:59.702Z,2.55
2022-09-23T04:12:26.388Z,2.95
2022-09-23T04:14:52.933Z,2.40
2022-09-23T04:17:19.644Z,2.80
2022-09-23T04:19:46.428Z,2.53
2022-09-23T04:22:12.984Z,2.45
2022-09-23T04:24:39.534Z,2.72
2022-09-23T04:27:06.109Z,2.60
2022-09-23T04:29:32.727Z,2.60
2022-09-23T04:31:59.541Z,2.78
2022-09-23T04:34:26.152Z,2.42
2022-09-23T04:36:52.683Z,3.20
2022-09-23T04:39:19.558Z,2.70
2022-09-23T04:41:46.230Z,2.75
2022-09-23T04:44:13.319Z,2.87
2022-09-23T04:46:40.704Z,2.70
2022-09-23T04:49:07.561Z,2.95
2022-09-23T04:51:34.308Z,2.45
2022-09-23T04:54:00.859Z,3.05
2022-09-23T04:56:28.939Z,3.87
2022-09-23T04:58:58.278Z,3.05
2022-09-23T05:01:26.847Z,2.72
2022-09-23T05:03:55.376Z,2.67
2022-09-23T05:06:22.046Z,2.97
2022-09-23T05:08:50.380Z,2.70
2022-09-23T05:11:17.979Z,2.28
2022-09-23T05:13:48.057Z,2.53
2022-09-23T05:16:15.818Z,2.10
2022-09-23T05:18:42.850Z,2.12
2022-09-23T05:21:12.574Z,2.22
2022-09-23T05:23:39.970Z,2.42
2022-09-23T05:26:08.270Z,2.42
2022-09-23T05:28:38.747Z,2.47
2022-09-23T05:31:05.927Z,2.70
2022-09-23T05:33:35.711Z,2.78
2022-09-23T05:36:05.408Z,2.50
2022-09-23T05:38:32.113Z,2.70
2022-09-23T05:40:59.541Z,2.65
2022-09-23T05:43:26.382Z,2.47
2022-09-23T05:45:53.032Z,2.35
2022-09-23T05:48:19.615Z,3.10
2022-09-23T05:50:52.564Z,3.08
2022-09-23T05:53:19.342Z,3.20
2022-09-23T05:55:46.217Z,3.12
2022-09-23T05:58:12.874Z,2.97
2022-09-23T06:00:40.976Z,2.90
2022-09-23T06:03:14.393Z,2.83
2022-09-23T06:05:41.048Z,2.53
2022-09-23T06:08:08.132Z,2.72
2022-09-23T06:10:39.230Z,2.87
2022-09-23T06:13:06.133Z,3.17
2022-09-23T06:15:32.852Z,2.83
2022-09-23T06:18:02.282Z,3.00
2022-09-23T06:20:28.971Z,3.05
2022-09-23T06:22:56.418Z,3.00
2022-09-23T06:25:23.088Z,2.70
2022-09-23T06:27:54.428Z,2.95
2022-09-23T06:30:25.646Z,3.22
2022-09-23T06:32:53.978Z,2.87
2022-09-23T06:35:27.720Z,3.28
2022-09-23T06:37:54.945Z,3.08
2022-09-23T06:40:24.860Z,3.20
2022-09-23T06:42:58.856Z,2.90
2022-09-23T06:45:26.262Z,2.58
2022-09-23T06:48:02.114Z,2.95
2022-09-23T06:52:56.265Z,2.90
2022-09-23T06:55:26.682Z,2.62
2022-09-23T06:57:53.697Z,2.67
2022-09-23T07:00:22.615Z,3.15
2022-09-23T07:02:49.459Z,3.05
2022-09-23T07:05:17.653Z,2.78
2022-09-23T07:07:44.671Z,2.55
2022-09-23T07:10:11.506Z,3.47
2022-09-23T07:12:38.173Z,4.10
2022-09-23T07:15:05.023Z,3.97
2022-09-23T07:17:32.224Z,4.75
2022-09-23T07:19:58.825Z,3.05
2022-09-23T07:22:25.753Z,3.60
2022-09-23T07:24:55.942Z,3.12
2022-09-23T07:27:26.193Z,3.28
2022-09-23T07:29:53.064Z,3.15
2022-09-23T07:32:19.904Z,3.87
2022-09-23T07:34:47.274Z,3.75
2022-09-23T07:37:14.756Z,3.65
2022-09-23T07:39:44.465Z,3.65
2022-09-23T07:42:15.532Z,4.05
2022-09-23T07:44:45.318Z,3.40
2022-09-23T07:47:15.724Z,3.92
2022-09-23T07:49:42.279Z,4.18
2022-09-23T07:52:08.855Z,3.70
2022-09-23T07:54:35.726Z,3.72
2022-09-23T07:57:02.299Z,3.10
2022-09-23T07:59:31.481Z,2.97
2022-09-23T08:01:58.101Z,3.22
2022-09-23T08:04:29.716Z,3.00
2022-09-23T08:06:58.017Z,3.30
2022-09-23T08:09:26.648Z,3.45
2022-09-23T08:11:53.340Z,2.00
2022-09-23T08:14:20.112Z,2.08
2022-09-23T08:16:47.662Z,1.92
2022-09-23T08:19:17.674Z,2.00
2022-09-23T08:21:46.707Z,2.05
2022-09-23T08:24:20.395Z,2.15
2022-09-23T08:26:47.513Z,2.17
2022-09-23T08:29:16.488Z,2.62
2022-09-23T08:31:43.238Z,1.75
2022-09-23T08:34:09.921Z,1.95
2022-09-23T08:36:38.742Z,1.90
2022-09-23T08:39:05.567Z,2.40
2022-09-23T08:41:58.495Z,2.08
2022-09-23T08:44:27.113Z,1.83
2022-09-23T08:47:11.480Z,1.90
2022-09-23T08:50:19.884Z,2.08
2022-09-23T08:52:57.073Z,1.60
2022-09-23T08:55:44.623Z,1.95
2022-09-23T08:58:39.385Z,2.53
2022-09-23T09:01:26.682Z,1.90
2022-09-23T09:04:16.245Z,2.20
2022-09-23T09:06:55.903Z,1.83
2022-09-23T09:10:11.746Z,1.65
2022-09-23T09:12:49.400Z,1.95
2022-09-23T09:15:18.743Z,1.60
2022-09-23T09:18:11.557Z,1.80
2022-09-23T09:20:59.837Z,1.37
2022-09-23T09:23:38.996Z,1.60
2022-09-23T09:26:05.956Z,1.77
2022-09-23T09:28:38.841Z,1.73
2022-09-23T09:31:28.167Z,1.30
2022-09-23T09:34:07.177Z,1.65
2022-09-23T09:37:01.303Z,1.75
2022-09-23T09:39:39.391Z,2.12
2022-09-23T09:42:06.514Z,2.30
2022-09-23T09:45:01.820Z,1.67
2022-09-23T09:47:28.692Z,1.67
2022-09-23T09:50:06.203Z,1.95
2022-09-23T09:52:33.041Z,1.70
2022-09-23T09:55:26.589Z,2.40
2022-09-23T09:58:01.719Z,1.65
2022-09-23T10:00:28.394Z,1.87
2022-09-23T10:03:01.419Z,1.90
2022-09-23T10:05:34.650Z,1.70
2022-09-23T10:08:35.644Z,1.80
2022-09-23T10:11:20.891Z,1.95
2022-09-23T10:14:17.820Z,2.10
2022-09-23T10:16:45.068Z,1.77
2022-09-23T10:19:21.625Z,1.80
2022-09-23T10:21:52.268Z,1.50
2022-09-23T10:24:23.662Z,2.03
2022-09-23T10:27:09.793Z,1.70
2022-09-23T10:29:41.066Z,1.90
2022-09-23T10:32:22.885Z,1.80
2022-09-23T10:35:09.282Z,2.28
2022-09-23T10:37:43.044Z,1.87
2022-09-23T10:40:52.698Z,1.77
2022-09-23T10:43:44.104Z,1.85
2022-09-23T10:46:39.537Z,2.60
2022-09-23T10:49:43.983Z,1.58
2022-09-23T10:52:31.943Z,1.80
2022-09-23T10:55:10.806Z,2.25
2022-09-23T10:57:56.851Z,2.28
2022-09-23T11:00:32.083Z,2.08
2022-09-23T11:03:26.487Z,2.00
2022-09-23T11:06:14.419Z,2.20
2022-09-23T11:09:06.935Z,2.05
2022-09-23T11:12:21.505Z,2.40
2022-09-23T11:14:54.425Z,1.90
2022-09-23T11:17:27.028Z,2.20
2022-09-23T11:20:23.390Z,2.95
2022-09-23T11:23:24.008Z,2.40
2022-09-23T11:26:32.202Z,1.98
2022-09-23T11:29:12.296Z,1.95
2022-09-23T11:32:02.965Z,3.03
2022-09-23T11:34:54.336Z,3.20
2022-09-23T11:37:27.732Z,2.30
2022-09-23T11:39:57.114Z,1.80
2022-09-23T11:42:29.624Z,1.73
2022-09-23T11:44:59.323Z,1.90
2022-09-23T11:47:32.849Z,1.60
2022-09-23T11:50:35.567Z,1.80
2022-09-23T11:53:23.019Z,1.80
2022-09-23T11:55:58.456Z,1.40
2022-09-23T11:58:30.702Z,1.37
2022-09-23T12:01:09.419Z,1.70
2022-09-23T12:04:16.709Z,1.60
2022-09-23T12:06:48.243Z,1.60
2022-09-23T12:09:36.002Z,1.70
2022-09-23T12:12:25.044Z,1.65
2022-09-23T12:15:02.114Z,1.65
2022-09-23T12:17:54.451Z,1.60
2022-09-23T12:20:41.500Z,1.60
2022-09-23T12:23:26.699Z,1.60
2022-09-23T12:25:56.426Z,1.50
2022-09-23T12:28:26.313Z,1.42
2022-09-23T12:30:54.746Z,1.60
2022-09-23T12:33:22.528Z,1.98
2022-09-23T12:35:49.106Z,1.70
2022-09-23T12:38:20.412Z,1.48
2022-09-23T12:40:47.033Z,1.52
2022-09-23T12:43:34.642Z,1.67
2022-09-23T12:46:18.410Z,1.70
2022-09-23T12:49:00.011Z,1.50
2022-09-23T12:51:30.857Z,1.60
2022-09-23T12:54:18.511Z,1.30
2022-09-23T12:56:54.244Z,1.65
2022-09-23T12:59:31.627Z,1.52
2022-09-23T13:01:58.466Z,1.60
2022-09-23T13:05:01.984Z,1.48
2022-09-23T13:07:33.736Z,1.50
2022-09-23T13:10:14.882Z,1.85
2022-09-23T13:12:42.022Z,1.35
2022-09-23T13:15:42.340Z,1.70
2022-09-23T13:18:21.087Z,1.70
2022-09-23T13:20:48.838Z,1.60
2022-09-23T13:23:33.592Z,1.37
2022-09-23T13:26:01.635Z,1.40
2022-09-23T13:28:34.416Z,1.73
2022-09-23T13:31:05.955Z,1.40
2022-09-23T13:33:50.564Z,1.83
2022-09-23T13:36:18.722Z,1.37
2022-09-23T13:38:47.045Z,1.70
2022-09-23T13:41:22.388Z,1.42
2022-09-23T13:43:49.621Z,1.48
2022-09-23T13:46:22.072Z,1.52
2022-09-23T13:48:50.836Z,1.70
2022-09-23T13:51:27.894Z,1.30
2022-09-23T13:53:55.967Z,1.60
2022-09-23T13:56:22.723Z,1.37
2022-09-23T13:58:49.291Z,1.27
2022-09-23T14:01:27.551Z,1.20
2022-09-23T14:03:54.238Z,1.50
2022-09-23T14:06:20.820Z,1.60
2022-09-23T14:08:48.832Z,1.83
2022-09-23T14:11:40.267Z,1.37
2022-09-23T14:14:08.023Z,1.60
2022-09-23T14:16:38.989Z,1.48
2022-09-23T14:19:07.894Z,1.50
2022-09-23T14:21:39.020Z,1.50
2022-09-23T14:24:33.783Z,1.33
2022-09-23T14:27:15.746Z,1.30
2022-09-23T14:29:44.188Z,1.20
2022-09-23T14:32:14.648Z,1.83
2022-09-23T14:34:46.837Z,1.30
2022-09-23T14:37:45.197Z,1.40
2022-09-23T14:40:17.238Z,1.60
2022-09-23T14:42:48.860Z,1.45
2022-09-23T14:45:20.778Z,1.30
2022-09-23T14:47:52.046Z,1.50
2022-09-23T14:50:48.695Z,1.27
2022-09-23T14:53:26.830Z,1.40
2022-09-23T14:55:59.659Z,1.12
2022-09-23T14:58:28.577Z,1.37
2022-09-23T15:00:57.265Z,1.23
2022-09-23T15:03:23.944Z,1.70
2022-09-23T15:05:51.557Z,1.37
2022-09-23T15:08:20.205Z,1.40
2022-09-23T15:10:46.779Z,1.30
2022-09-23T15:13:24.232Z,1.52
2022-09-23T15:15:53.926Z,1.40
2022-09-23T15:18:22.633Z,1.25
2022-09-23T15:20:56.345Z,1.20
2022-09-23T15:23:52.988Z,1.30
2022-09-23T15:26:21.636Z,1.20
2022-09-23T15:28:48.662Z,1.50
2022-09-23T15:31:19.398Z,1.30
2022-09-23T15:33:49.869Z,1.55
2022-09-23T15:36:20.649Z,1.60
2022-09-23T15:38:47.389Z,1.20
2022-09-23T15:41:14.424Z,1.25
2022-09-23T15:43:44.602Z,1.20
2022-09-23T15:46:22.233Z,1.50
2022-09-23T15:49:00.937Z,1.12
2022-09-23T15:51:27.885Z,1.10
2022-09-23T15:53:55.438Z,1.40
2022-09-23T15:56:22.757Z,1.20
2022-09-23T15:58:49.372Z,1.55
2022-09-23T16:01:19.548Z,1.50
2022-09-23T16:03:46.143Z,1.27
2022-09-23T16:06:13.468Z,1.50
2022-09-23T16:08:42.200Z,1.48
2022-09-23T16:11:19.485Z,1.50
2022-09-23T16:13:46.189Z,1.40
2022-09-23T16:16:13.019Z,1.50
2022-09-23T16:18:44.606Z,1.33
2022-09-23T16:21:12.409Z,1.50
2022-09-23T16:23:41.236Z,1.77
2022-09-23T16:26:15.299Z,1.30
2022-09-23T16:28:42.228Z,1.25
2022-09-23T16:31:09.483Z,1.40
2022-09-23T16:33:36.086Z,1.30
2022-09-23T16:36:02.760Z,1.20
2022-09-23T16:38:29.611Z,1.30
2022-09-23T16:41:00.434Z,1.42
2022-09-23T16:43:31.601Z,1.50
2022-09-23T16:45:58.568Z,1.45
2022-09-23T16:48:25.179Z,1.60
2022-09-23T16:50:54.946Z,1.50
2022-09-23T16:53:21.531Z,1.20
2022-09-23T16:55:48.071Z,1.50
2022-09-23T16:58:14.633Z,1.30
2022-09-23T17:00:59.868Z,1.30
2022-09-23T17:03:41.674Z,1.42
2022-09-23T17:06:13.003Z,1.45
2022-09-23T17:08:42.796Z,1.33
2022-09-23T17:11:10.752Z,1.25
2022-09-23T17:13:39.612Z,1.67
2022-09-23T17:16:06.431Z,1.48
2022-09-23T17:18:33.064Z,1.52
2022-09-23T17:21:06.609Z,1.90
2022-09-23T17:23:35.189Z,1.42
2022-09-23T17:26:02.267Z,1.60
2022-09-23T17:28:29.135Z,1.48
2022-09-23T17:30:59.402Z,1.75
2022-09-23T17:33:26.829Z,1.55
2022-09-23T17:35:54.565Z,1.60
2022-09-23T17:38:28.897Z,1.83
2022-09-23T17:40:57.033Z,1.80
2022-09-23T17:43:26.589Z,1.70
2022-09-23T17:45:54.559Z,1.75
2022-09-23T17:48:25.619Z,1.87
2022-09-23T17:50:58.434Z,1.75
2022-09-23T17:53:25.955Z,1.75
2022-09-23T17:55:59.918Z,1.65
2022-09-23T17:58:33.446Z,1.55
2022-09-23T18:01:00.761Z,1.95
2022-09-23T18:03:28.700Z,1.98
2022-09-23T18:05:55.547Z,1.90
2022-09-23T18:08:22.166Z,1.98
2022-09-23T18:10:48.738Z,2.40
2022-09-23T18:13:15.303Z,2.08
2022-09-23T18:15:41.946Z,1.90
2022-09-23T18:18:08.484Z,1.70
2022-09-23T18:20:35.070Z,1.95
2022-09-23T18:23:01.671Z,1.80
2022-09-23T18:25:39.240Z,1.67
2022-09-23T18:28:06.654Z,1.70
2022-09-23T18:30:33.581Z,2.12
2022-09-23T18:33:00.257Z,2.03
2022-09-23T18:35:28.424Z,1.70
2022-09-23T18:37:55.429Z,1.70
2022-09-23T18:40:22.104Z,1.85
2022-09-23T18:42:49.707Z,1.80
2022-09-23T18:45:16.237Z,1.95
2022-09-23T18:48:01.579Z,2.35
2022-09-23T18:50:40.807Z,2.10
2022-09-23T18:53:08.201Z,1.98
2022-09-23T18:55:37.965Z,2.30
2022-09-23T18:58:07.352Z,2.45
2022-09-23T19:00:34.099Z,2.20
2022-09-23T19:03:00.725Z,3.05
2022-09-23T19:05:27.308Z,2.53
2022-09-23T19:07:53.909Z,2.67
2022-09-23T19:10:20.600Z,2.72
2022-09-23T19:12:47.235Z,2.62
2022-09-23T19:15:14.221Z,2.30
2022-09-23T19:17:40.922Z,2.37
2022-09-23T19:20:08.040Z,2.70
2022-09-23T19:22:34.865Z,2.75
2022-09-23T19:25:01.504Z,2.53
2022-09-23T19:27:28.100Z,2.35
2022-09-23T19:29:55.012Z,2.50
2022-09-23T19:32:27.044Z,2.80
2022-09-23T19:34:53.664Z,2.70
2022-09-23T19:37:20.364Z,2.50
2022-09-23T19:39:47.687Z,2.47
2022-09-23T19:42:14.378Z,2.92
2022-09-23T19:44:41.025Z,2.60
2022-09-23T19:47:07.792Z,2.92
2022-09-23T19:49:34.422Z,2.50
2022-09-23T19:52:01.100Z,3.12
2022-09-23T19:54:27.855Z,2.97
2022-09-23T19:56:54.527Z,2.60
2022-09-23T19:59:21.395Z,2.60
2022-09-23T20:01:48.700Z,3.10
2022-09-23T20:04:16.060Z,3.03
2022-09-23T20:06:42.752Z,2.92
2022-09-23T20:09:09.329Z,2.80
2022-09-23T20:11:36.130Z,3.17
2022-09-23T20:14:04.430Z,2.80
2022-09-23T20:16:32.789Z,2.80
2022-09-23T20:18:59.899Z,2.62
2022-09-23T20:21:26.755Z,2.83
2022-09-23T20:23:53.300Z,2.83
2022-09-23T20:26:38.347Z,3.30
2022-09-23T20:29:05.137Z,2.87
2022-09-23T20:31:32.282Z,3.90
2022-09-23T20:33:58.901Z,3.05
2022-09-23T20:36:28.846Z,3.00
2022-09-23T20:38:56.098Z,2.72
2022-09-23T20:41:22.784Z,3.17
2022-09-23T20:43:54.075Z,2.85
2022-09-23T20:46:25.437Z,3.10
2022-09-23T20:48:52.161Z,3.00
2022-09-23T20:51:18.696Z,2.62
2022-09-23T20:53:47.851Z,3.28
2022-09-23T20:56:14.905Z,3.17
2022-09-23T20:58:41.638Z,3.08
2022-09-23T21:01:11.578Z,3.53
2022-09-23T21:03:39.592Z,3.65
2022-09-23T21:06:07.006Z,3.30
2022-09-23T21:08:34.177Z,3.25
2022-09-23T21:11:04.852Z,3.60
2022-09-23T21:13:31.906Z,3.65
2022-09-23T21:16:05.698Z,3.10
2022-09-23T21:18:32.289Z,3.50
2022-09-23T21:20:59.471Z,3.60
2022-09-23T21:23:27.255Z,3.37
2022-09-23T21:26:19.295Z,3.55
2022-09-23T21:28:50.503Z,3.55
2022-09-23T21:31:26.023Z,3.75
2022-09-23T21:33:56.787Z,4.10
2022-09-23T21:36:24.582Z,3.12
2022-09-23T21:38:51.449Z,3.35
2022-09-23T21:41:18.037Z,3.67
2022-09-23T21:43:44.789Z,3.67
2022-09-23T21:46:13.483Z,3.70
2022-09-23T21:48:41.197Z,3.60
2022-09-23T21:51:13.287Z,3.83
2022-09-23T21:53:40.317Z,3.72
2022-09-23T21:56:11.077Z,3.92
2022-09-23T21:58:39.676Z,4.03
2022-09-23T22:01:20.146Z,4.25
2022-09-23T22:03:54.960Z,4.18
2022-09-23T22:06:23.116Z,3.53
2022-09-23T22:08:50.963Z,4.15
2022-09-23T22:11:38.706Z,4.10
2022-09-23T22:14:07.369Z,3.75
2022-09-23T22:16:34.370Z,4.05
2022-09-23T22:19:01.241Z,4.10
2022-09-23T22:21:29.245Z,4.30
2022-09-23T22:24:02.759Z,3.55
2022-09-23T22:26:31.334Z,3.87
2022-09-23T22:29:19.532Z,4.22
2022-09-23T22:32:04.996Z,4.00
2022-09-23T22:34:48.950Z,4.23
2022-09-23T22:37:18.900Z,4.30
2022-09-23T22:39:45.586Z,4.97
2022-09-23T22:42:13.113Z,4.28
2022-09-23T22:44:42.034Z,4.43
2022-09-23T22:47:11.411Z,4.40
2022-09-23T22:49:40.133Z,4.37
2022-09-23T22:52:11.418Z,4.90
2022-09-23T22:54:38.505Z,4.70
2022-09-23T22:57:08.334Z,3.80
2022-09-23T22:59:35.523Z,4.10
2022-09-23T23:02:02.948Z,3.90
2022-09-23T23:04:29.855Z,4.45
2022-09-23T23:06:57.299Z,4.82
2022-09-23T23:09:23.871Z,4.70
2022-09-23T23:11:50.556Z,4.57
2022-09-23T23:14:17.922Z,4.22
2022-09-23T23:16:46.297Z,4.43
2022-09-23T23:19:14.629Z,4.43
2022-09-23T23:21:43.430Z,4.40
2022-09-23T23:24:20.720Z,4.70
2022-09-23T23:26:47.640Z,4.43
2022-09-23T23:29:15.397Z,4.25
2022-09-23T23:31:42.030Z,5.00
2022-09-23T23:34:11.935Z,4.82
2022-09-23T23:36:38.691Z,4.50
2022-09-23T23:39:05.447Z,4.28
2022-09-23T23:41:32.026Z,4.00
2022-09-23T23:43:59.486Z,4.62
2022-09-23T23:46:27.624Z,4.97
2022-09-23T23:48:54.695Z,4.62
2022-09-23T23:51:21.358Z,4.28
2022-09-23T23:53:48.295Z,4.10
2022-09-23T23:56:18.986Z,4.47
2022-09-23T23:58:45.568Z,4.12
